Aérodrome :
LOGIN :

S'inscrire | Disclaimer

   EN    FR    IT 

 










Légende :    VFR   VFR Marginal   IFR   IFR Intensif   IFR Très Intensif
Visi : 
Plafond : 
>= 8 km
>= 3000ft
5 à 8 km
1000 à 3000 ft
1500m à 5 km
500 à 1000 ft
800 à 1500m
200 à 500 ft
< 800m
< 200 ft
Symboles :   Orages  Brouillard  Fortes neiges  Fortes précipitations  Vent > 20 kt
SIGMETs :   Divers  Orages  Givrage  Turbulence  Onde Orograph.  Cendres Volcan.







- Altitude de l'aérodrome : 112 ft
- Code IATA : SVQ


LEZL - Sevilla San Pablo

DERNIER METAR :
  • 220300Z 16004KT CAVOK 23/17 Q1014 NOSIG

METARs EXPIRÉS :
  • 220230Z VRB01KT CAVOK 24/17 Q1014 NOSIG
  • 220200Z 20003KT 160V230 CAVOK 25/17 Q1014 NOSIG
  • 220130Z 20005KT 170V230 CAVOK 26/17 Q1014 NOSIG
  • 220100Z AUTO 21005KT 9999 NCD 26/16 Q1014
  • 220030Z AUTO 19004KT 150V220 9999 NCD 25/16 Q1014

TAF TAF LEZL
Valide du 22 à 03h jusqu'au 23 à 03h UTC


220200Z 2203/2303 05004KT CAVOK TX37/2215Z TN23/2206Z
PROB40
TEMPO 2218/2222 24010KT
PROB30
TEMPO 2215/2220 FEW050CB
Pas de NOTAMs connus pour ce terrain.



MET'MAP, la Météo Aéronautique d'un coup d'oeil ! - Copyright ORBIFLY Décembre 2007 - Disclaimer

ORBIFLY MET'MAP TEAM :

Programmation & Développement : Alexandra Zaïnal
Conception & Développement : Baudouin d'Aumeries
Co-Programmation & Développement : Marc-Olivier Méhu
Soutien technique & logistique : Manuel Goepfert

Contact : metmap@orbifly.com




SOURCES & CREDITS :

   NOAA